Impacts METAR Board
IDs:

KHBG - Hattiesburg/Chain Mu, MS, US

Updated at: 1500 UTC 15 Oct 2018
Potential Impact None Slight Moderate High
Time 15/03Z 15/04Z 15/05Z 15/06Z 15/07Z 15/08Z 15/09Z 15/10Z 15/11Z 15/12Z 15/13Z 15/14Z 15/15Z
Temp73 71 69 68 66 67 67 65 65 65 66 68 78
Dewpt67 67 66 65 64 65 65 64 63 63 65 67 70
Altim30.03 30.03 30.03 30.03 30.03 30.02 30.02 30.03 30.04 30.05 30.06 30.08 30.09
VIS10 10 10 10 10 10 10 10 10 10 0.25 8 10
CIG-- -- -- -- -- -- -- -- -- 2 2 2 --
CoverCLRCLRCLRCLRCLRCLRFEWCLRCLROVCOVXOVCCLR
FltCatVFRVFRVFRVFRVFRVFRVFRVFRVFRLIFRLIFRLIFRVFR
WX--------------------FG----
WDir1401300014000000000
WSpd3 3 0 0 3 0 0 0 0 0 0 0 0
WGst-- -- -- -- -- -- -- -- -- -- -- -- --
Raw hourly METARs
KHBG 150253Z AUTO 14003KT 10SM CLR 23/19 A3003 RMK AO2 SLP166 T02280194 51017
KHBG 150353Z AUTO 13003KT 10SM CLR 22/19 A3003 RMK AO2 SLP167 T02170194
KHBG 150453Z AUTO 00000KT 10SM CLR 21/19 A3003 RMK AO2 SLP166 T02060189
KHBG 150553Z AUTO 00000KT 10SM CLR 20/18 A3003 RMK AO2 SLP166 T02000183 10261 20200 403110172 58000
KHBG 150653Z AUTO 14003KT 10SM CLR 19/18 A3003 RMK AO2 SLP166 T01890178
KHBG 150753Z AUTO 00000KT 10SM CLR 19/18 A3002 RMK AO2 SLP163 T01940183
KHBG 150853Z AUTO 00000KT 10SM FEW024 19/18 A3002 RMK AO2 SLP163 T01940183 55002
KHBG 150953Z AUTO 00000KT 10SM CLR 18/18 A3003 RMK AO2 SLP165 T01830178
KHBG 151053Z AUTO 00000KT 10SM CLR 18/17 A3004 RMK AO2 SLP170 T01830172
KHBG 151153Z AUTO 00000KT 10SM OVC002 18/17 A3005 RMK AO2 SLP173 T01830172 10200 20183 53010
KHBG 151253Z AUTO 00000KT M1/4SM FG VV002 19/18 A3006 RMK AO2 SLP177 T01890183
KHBG 151353Z AUTO 00000KT 8SM OVC002 20/19 A3008 RMK AO2 SLP181 T02000194
KHBG 151453Z AUTO 00000KT 10SM CLR 26/21 A3009 RMK AO2 SLP185 T02560211 51012



Page loaded:  15:13 UTC  |   08:13 AM Pacific  |   09:13 AM Mountain  |   10:13 AM Central  |   11:13 AM Eastern

 

ADVISORIES

FORECASTS

FORECASTS

OBSERVATIONS

USER TOOLS

ABOUT US